createdAt,value
2018-01-30T00:00:30.619Z,984.12
2018-01-30T00:01:30.565Z,984.22
2018-01-30T00:02:30.557Z,984.17
2018-01-30T00:03:30.554Z,984.11
2018-01-30T00:04:30.558Z,984.24
2018-01-30T00:05:30.588Z,984.30
2018-01-30T00:06:30.592Z,984.32
2018-01-30T00:07:30.551Z,984.37
2018-01-30T00:08:30.544Z,984.33
2018-01-30T00:09:30.542Z,984.47
2018-01-30T00:10:30.540Z,984.48
2018-01-30T00:11:30.597Z,984.49
2018-01-30T00:12:30.535Z,984.52
2018-01-30T00:13:30.536Z,984.53
2018-01-30T00:14:30.532Z,984.52
2018-01-30T00:15:30.572Z,984.54
2018-01-30T00:16:30.531Z,984.60
2018-01-30T00:17:30.560Z,984.66
2018-01-30T00:18:30.530Z,984.64
2018-01-30T00:19:30.528Z,984.73
2018-01-30T00:20:30.516Z,984.74
2018-01-30T00:21:30.515Z,984.78
2018-01-30T00:22:30.552Z,984.87
2018-01-30T00:23:30.510Z,984.87
2018-01-30T00:24:30.510Z,984.92
2018-01-30T00:25:30.506Z,984.94
2018-01-30T00:26:30.500Z,984.90
2018-01-30T00:27:30.542Z,984.92
2018-01-30T00:28:30.497Z,984.94
2018-01-30T00:29:30.492Z,984.90
2018-01-30T00:30:30.500Z,984.97
2018-01-30T00:31:30.490Z,984.96
2018-01-30T00:32:30.523Z,984.99
2018-01-30T00:33:30.484Z,985.06
2018-01-30T00:34:30.480Z,984.99
2018-01-30T00:35:30.479Z,985.08
2018-01-30T00:36:30.480Z,985.05
2018-01-30T00:37:30.516Z,985.08
2018-01-30T00:38:30.471Z,985.12
2018-01-30T00:39:30.473Z,985.14
2018-01-30T00:40:30.472Z,985.08
2018-01-30T00:41:30.462Z,984.99
2018-01-30T00:42:30.526Z,985.07
2018-01-30T00:43:30.466Z,985.06
2018-01-30T00:44:30.461Z,985.07
2018-01-30T00:45:30.496Z,985.04
2018-01-30T00:46:30.452Z,985.09
2018-01-30T00:47:30.491Z,985.13
2018-01-30T00:48:30.442Z,985.13
2018-01-30T00:49:30.445Z,985.23
2018-01-30T00:50:30.442Z,985.21
2018-01-30T00:51:30.473Z,985.18
2018-01-30T00:52:30.432Z,985.29
2018-01-30T00:53:30.430Z,985.31
2018-01-30T00:54:30.428Z,985.31
2018-01-30T00:55:30.425Z,985.30
2018-01-30T00:56:30.483Z,985.34
2018-01-30T00:57:30.419Z,985.39
2018-01-30T00:58:30.416Z,985.47
2018-01-30T00:59:30.413Z,985.40
2018-01-30T01:00:30.444Z,985.43
2018-01-30T01:01:30.406Z,985.54
2018-01-30T01:02:30.465Z,985.47
2018-01-30T01:03:30.404Z,985.50
2018-01-30T01:04:30.397Z,985.53
2018-01-30T01:05:30.434Z,985.51
2018-01-30T01:06:30.391Z,985.46
2018-01-30T01:07:30.427Z,985.51
2018-01-30T01:08:30.387Z,985.51
2018-01-30T01:09:30.388Z,985.55
2018-01-30T01:10:30.384Z,985.50
2018-01-30T01:11:30.381Z,985.56
2018-01-30T01:12:30.437Z,985.50
2018-01-30T01:13:30.371Z,985.61
2018-01-30T01:14:30.372Z,985.58
2018-01-30T01:15:30.406Z,985.63
2018-01-30T01:16:30.364Z,985.60
2018-01-30T01:17:30.364Z,985.65
2018-01-30T01:18:30.400Z,985.68
2018-01-30T01:19:30.363Z,985.72
2018-01-30T01:20:30.361Z,985.70
2018-01-30T01:21:30.354Z,985.71
2018-01-30T01:22:30.350Z,985.68
2018-01-30T01:23:30.389Z,985.71
2018-01-30T01:24:30.339Z,985.71
2018-01-30T01:25:30.336Z,985.70
2018-01-30T01:26:30.333Z,985.65
2018-01-30T01:27:30.330Z,985.72
2018-01-30T01:28:30.375Z,985.74
2018-01-30T01:29:30.325Z,985.75
2018-01-30T01:30:51.283Z,985.81
2018-01-30T01:31:30.289Z,985.78
2018-01-30T01:32:30.268Z,985.73
2018-01-30T01:33:30.326Z,985.82
2018-01-30T01:34:30.281Z,985.81
2018-01-30T01:35:30.259Z,985.83
2018-01-30T01:36:32.984Z,985.89
2018-01-30T01:37:30.248Z,985.86
2018-01-30T01:38:30.700Z,985.93
2018-01-30T01:39:44.996Z,986.01
2018-01-30T01:40:30.260Z,986.05
2018-01-30T01:41:30.249Z,986.04
2018-01-30T01:42:30.253Z,986.02
2018-01-30T01:43:30.246Z,986.11
2018-01-30T01:44:30.288Z,986.09
2018-01-30T01:45:33.000Z,986.14
2018-01-30T01:46:30.241Z,986.20
2018-01-30T01:47:44.990Z,986.16
2018-01-30T01:48:30.233Z,986.28
2018-01-30T01:49:30.269Z,986.20
2018-01-30T01:50:30.224Z,986.26
2018-01-30T01:51:30.223Z,986.30
2018-01-30T01:52:30.219Z,986.29
2018-01-30T01:53:30.199Z,986.36
2018-01-30T01:54:35.546Z,986.40
2018-01-30T01:55:30.208Z,986.40
2018-01-30T01:56:30.199Z,986.43
2018-01-30T01:57:30.232Z,986.48
2018-01-30T01:58:30.228Z,986.35
2018-01-30T01:59:30.270Z,986.41
2018-01-30T02:00:30.215Z,986.39
2018-01-30T02:01:30.984Z,986.34
2018-01-30T02:02:30.214Z,986.34
2018-01-30T02:03:30.210Z,986.30
2018-01-30T02:04:30.244Z,986.28
2018-01-30T02:05:30.201Z,986.26
2018-01-30T02:06:30.215Z,986.27
2018-01-30T02:07:30.196Z,986.29
2018-01-30T02:08:30.141Z,986.32
2018-01-30T02:09:30.184Z,986.35
2018-01-30T02:10:30.173Z,986.42
2018-01-30T02:11:30.130Z,986.44
2018-01-30T02:12:30.130Z,986.51
2018-01-30T02:13:30.123Z,986.48
2018-01-30T02:14:30.124Z,986.50
2018-01-30T02:15:30.155Z,986.46
2018-01-30T02:16:30.117Z,986.46
2018-01-30T02:17:30.109Z,986.47
2018-01-30T02:18:30.106Z,986.39
2018-01-30T02:19:30.108Z,986.49
2018-01-30T02:20:30.143Z,986.45
2018-01-30T02:21:30.109Z,986.41
2018-01-30T02:22:30.094Z,986.41
2018-01-30T02:23:30.093Z,986.40
2018-01-30T02:24:30.091Z,986.36
2018-01-30T02:25:30.126Z,986.39
2018-01-30T02:26:30.077Z,986.35
2018-01-30T02:27:30.074Z,986.36
2018-01-30T02:28:30.076Z,986.34
2018-01-30T02:29:30.108Z,986.39
2018-01-30T02:30:30.067Z,986.39
2018-01-30T02:31:30.068Z,986.42
2018-01-30T02:32:30.062Z,986.45
2018-01-30T02:33:30.057Z,986.49
2018-01-30T02:34:30.096Z,986.50
2018-01-30T02:35:30.090Z,986.55
2018-01-30T02:36:30.052Z,986.55
2018-01-30T02:37:30.046Z,986.61
2018-01-30T02:38:30.037Z,986.65
2018-01-30T02:39:30.033Z,986.64
2018-01-30T02:40:30.070Z,986.62
2018-01-30T02:41:30.025Z,986.65
2018-01-30T02:42:30.028Z,986.65
2018-01-30T02:43:30.019Z,986.60
2018-01-30T02:44:30.015Z,986.65
2018-01-30T02:45:30.056Z,986.67
2018-01-30T02:46:30.010Z,986.66
2018-01-30T02:47:30.009Z,986.69
2018-01-30T02:48:30.001Z,986.65
2018-01-30T02:49:29.997Z,986.66
2018-01-30T02:50:30.041Z,986.68
2018-01-30T02:51:29.992Z,986.65
2018-01-30T02:52:29.987Z,986.71
2018-01-30T02:53:29.987Z,986.74
2018-01-30T02:54:29.982Z,986.71
2018-01-30T02:55:30.027Z,986.79
2018-01-30T02:56:30.604Z,986.79
2018-01-30T02:57:29.968Z,986.79
2018-01-30T02:58:29.965Z,986.79
2018-01-30T02:59:29.968Z,986.81
2018-01-30T03:00:29.999Z,986.83
2018-01-30T03:01:29.998Z,986.85
2018-01-30T03:02:29.954Z,986.89
2018-01-30T03:03:29.949Z,986.92
2018-01-30T03:04:29.942Z,986.90
2018-01-30T03:05:29.947Z,986.91
2018-01-30T03:06:29.976Z,986.91
2018-01-30T03:07:29.936Z,986.91
2018-01-30T03:08:29.938Z,986.95
2018-01-30T03:09:29.932Z,986.91
2018-01-30T03:10:29.925Z,986.92
2018-01-30T03:11:29.971Z,986.92
2018-01-30T03:12:29.921Z,986.92
2018-01-30T03:13:29.917Z,986.97
2018-01-30T03:14:29.910Z,986.87
2018-01-30T03:15:29.959Z,986.88
2018-01-30T03:16:29.903Z,986.93
2018-01-30T03:17:29.941Z,986.99
2018-01-30T03:18:29.894Z,987.05
2018-01-30T03:19:29.892Z,987.00
2018-01-30T03:20:29.889Z,986.90
2018-01-30T03:21:29.884Z,987.05
2018-01-30T03:22:29.919Z,987.00
2018-01-30T03:23:30.009Z,987.03
2018-01-30T03:24:29.876Z,986.97
2018-01-30T03:25:30.481Z,986.99
2018-01-30T03:26:29.869Z,987.05
2018-01-30T03:27:29.949Z,987.03
2018-01-30T03:28:29.859Z,987.04
2018-01-30T03:29:30.599Z,987.09
2018-01-30T03:30:29.856Z,987.04
2018-01-30T03:31:29.853Z,987.01
2018-01-30T03:32:29.896Z,987.05
2018-01-30T03:33:29.850Z,986.98
2018-01-30T03:34:29.879Z,987.02
2018-01-30T03:35:30.012Z,987.02
2018-01-30T03:36:29.831Z,986.94
2018-01-30T03:37:29.828Z,986.98
2018-01-30T03:38:29.875Z,986.96
2018-01-30T03:39:29.865Z,986.99
2018-01-30T03:40:29.817Z,987.03
2018-01-30T03:41:29.812Z,987.03
2018-01-30T03:42:29.809Z,986.99
2018-01-30T03:43:29.808Z,987.02
2018-01-30T03:44:29.853Z,987.01
2018-01-30T03:45:29.798Z,986.99
2018-01-30T03:46:29.798Z,986.98
2018-01-30T03:47:29.791Z,986.94
2018-01-30T03:48:29.830Z,987.00
2018-01-30T03:49:29.828Z,987.01
2018-01-30T03:50:29.782Z,987.01
2018-01-30T03:51:29.783Z,986.99
2018-01-30T03:52:29.775Z,987.00
2018-01-30T03:53:29.769Z,986.98
2018-01-30T03:54:29.818Z,986.98
2018-01-30T03:55:29.765Z,986.92
2018-01-30T03:56:29.760Z,986.94
2018-01-30T03:57:29.758Z,986.95
2018-01-30T03:58:29.756Z,986.92
2018-01-30T03:59:29.785Z,986.94
2018-01-30T04:00:29.747Z,986.91
2018-01-30T04:01:29.741Z,986.96
2018-01-30T04:02:29.737Z,986.96
2018-01-30T04:03:29.733Z,986.96
2018-01-30T04:04:29.777Z,986.95
2018-01-30T04:05:29.726Z,986.96
2018-01-30T04:06:29.723Z,987.02
2018-01-30T04:07:29.719Z,986.99
2018-01-30T04:08:29.760Z,987.02
2018-01-30T04:09:29.712Z,987.03
2018-01-30T04:10:29.749Z,987.00
2018-01-30T04:11:29.706Z,987.05
2018-01-30T04:12:29.698Z,987.00
2018-01-30T04:13:29.697Z,987.08
2018-01-30T04:14:29.694Z,987.06
2018-01-30T04:15:29.763Z,987.13
2018-01-30T04:16:29.683Z,987.15
2018-01-30T04:17:29.681Z,987.20
2018-01-30T04:18:29.676Z,987.19
2018-01-30T04:19:29.673Z,987.23
2018-01-30T04:20:29.714Z,987.23
2018-01-30T04:21:29.664Z,987.23
2018-01-30T04:22:29.660Z,987.21
2018-01-30T04:23:29.696Z,987.27
2018-01-30T04:24:29.654Z,987.26
2018-01-30T04:25:29.648Z,987.29
2018-01-30T04:26:29.689Z,987.27
2018-01-30T04:27:29.642Z,987.31
2018-01-30T04:28:29.634Z,987.30
2018-01-30T04:29:29.633Z,987.36
2018-01-30T04:30:29.631Z,987.37
2018-01-30T04:31:29.664Z,987.35
2018-01-30T04:32:29.621Z,987.35
2018-01-30T04:33:29.615Z,987.33
2018-01-30T04:34:29.615Z,987.35
2018-01-30T04:35:29.607Z,987.29
2018-01-30T04:36:29.648Z,987.31
2018-01-30T04:37:29.599Z,987.34
2018-01-30T04:38:29.632Z,987.34
2018-01-30T04:39:29.592Z,987.36
2018-01-30T04:40:29.588Z,987.36
2018-01-30T04:41:29.625Z,987.37
2018-01-30T04:42:29.579Z,987.32
2018-01-30T04:43:29.576Z,987.28
2018-01-30T04:44:29.575Z,987.27
2018-01-30T04:45:29.577Z,987.23
2018-01-30T04:46:29.611Z,987.22
2018-01-30T04:47:29.557Z,987.21
2018-01-30T04:48:29.594Z,987.18
2018-01-30T04:49:29.548Z,987.19
2018-01-30T04:50:29.548Z,987.19
2018-01-30T04:51:29.544Z,987.20
2018-01-30T04:52:29.586Z,987.12
2018-01-30T04:53:29.554Z,987.16
2018-01-30T04:54:29.528Z,987.14
2018-01-30T04:55:29.529Z,987.10
2018-01-30T04:56:29.520Z,987.12
2018-01-30T04:57:29.555Z,987.14
2018-01-30T04:58:29.513Z,987.15
2018-01-30T04:59:29.510Z,987.17
2018-01-30T05:00:29.504Z,987.20
2018-01-30T05:01:29.504Z,987.22
2018-01-30T05:02:29.543Z,987.25
2018-01-30T05:03:29.495Z,987.26
2018-01-30T05:04:29.486Z,987.28
2018-01-30T05:05:29.492Z,987.29
2018-01-30T05:06:29.480Z,987.28
2018-01-30T05:07:29.554Z,987.28
2018-01-30T05:08:29.473Z,987.26
2018-01-30T05:09:29.473Z,987.27
2018-01-30T05:10:29.466Z,987.24
2018-01-30T05:11:29.463Z,987.28
2018-01-30T05:12:29.497Z,987.28
2018-01-30T05:13:29.456Z,987.33
2018-01-30T05:14:29.450Z,987.34
2018-01-30T05:15:29.441Z,987.33
2018-01-30T05:16:29.438Z,987.35
2018-01-30T05:17:29.477Z,987.34
2018-01-30T05:18:29.432Z,987.35
2018-01-30T05:19:29.434Z,987.40
2018-01-30T05:20:29.422Z,987.38
2018-01-30T05:21:29.421Z,987.43
2018-01-30T05:22:29.460Z,987.42
2018-01-30T05:23:29.422Z,987.42
2018-01-30T05:24:29.414Z,987.44
2018-01-30T05:25:29.414Z,987.42
2018-01-30T05:26:29.420Z,987.44
2018-01-30T05:27:29.444Z,987.36
2018-01-30T05:28:29.400Z,987.38
2018-01-30T05:29:29.397Z,987.43
2018-01-30T05:30:29.392Z,987.45
2018-01-30T05:31:29.391Z,987.47
2018-01-30T05:32:29.430Z,987.48
2018-01-30T05:33:29.376Z,987.54
2018-01-30T05:34:29.381Z,987.53
2018-01-30T05:35:29.362Z,987.55
2018-01-30T05:36:29.366Z,987.58
2018-01-30T05:37:29.409Z,987.59
2018-01-30T05:38:29.347Z,987.63
2018-01-30T05:39:29.341Z,987.66
2018-01-30T05:40:29.337Z,987.68
2018-01-30T05:41:29.380Z,987.71
2018-01-30T05:42:29.330Z,987.72
2018-01-30T05:43:29.326Z,987.72
2018-01-30T05:44:29.326Z,987.71
2018-01-30T05:45:29.313Z,987.71
2018-01-30T05:46:29.366Z,987.72
2018-01-30T05:47:29.305Z,987.75
2018-01-30T05:48:29.349Z,987.75
2018-01-30T05:49:29.298Z,987.78
2018-01-30T05:50:29.303Z,987.79
2018-01-30T05:51:29.328Z,987.82
2018-01-30T05:52:29.285Z,987.83
2018-01-30T05:53:29.282Z,987.89
2018-01-30T05:54:29.320Z,987.87
2018-01-30T05:55:29.274Z,987.90
2018-01-30T05:56:29.271Z,987.91
2018-01-30T05:57:29.266Z,987.88
2018-01-30T05:58:29.309Z,987.86
2018-01-30T05:59:29.259Z,987.82
2018-01-30T06:00:29.257Z,987.86
2018-01-30T06:01:29.253Z,987.84
2018-01-30T06:02:29.245Z,987.93
2018-01-30T06:03:29.298Z,987.89
2018-01-30T06:04:29.247Z,987.94
2018-01-30T06:05:29.235Z,987.94
2018-01-30T06:06:29.235Z,987.95
2018-01-30T06:07:29.270Z,988.01
2018-01-30T06:08:29.225Z,987.99
2018-01-30T06:09:29.259Z,987.96
2018-01-30T06:10:29.224Z,987.94
2018-01-30T06:11:29.212Z,987.96
2018-01-30T06:12:29.211Z,987.99
2018-01-30T06:13:29.206Z,987.94
2018-01-30T06:14:29.241Z,987.95
2018-01-30T06:15:29.197Z,987.95
2018-01-30T06:16:29.195Z,988.00
2018-01-30T06:17:29.190Z,988.05
2018-01-30T06:18:29.212Z,988.05
2018-01-30T06:19:29.219Z,988.02
2018-01-30T06:20:29.175Z,988.03
2018-01-30T06:21:29.172Z,988.07
2018-01-30T06:22:29.169Z,988.10
2018-01-30T06:23:29.166Z,988.06
2018-01-30T06:24:29.212Z,988.11
2018-01-30T06:25:29.157Z,988.12
2018-01-30T06:26:29.155Z,988.10
2018-01-30T06:27:29.150Z,988.07
2018-01-30T06:28:29.144Z,988.07
2018-01-30T06:29:29.187Z,988.07
2018-01-30T06:30:29.136Z,988.05
2018-01-30T06:31:29.255Z,988.06
2018-01-30T06:32:29.127Z,988.08
2018-01-30T06:33:29.164Z,988.09
2018-01-30T06:34:29.119Z,988.11
2018-01-30T06:35:29.158Z,988.16
2018-01-30T06:36:29.118Z,988.14
2018-01-30T06:37:29.108Z,988.15
2018-01-30T06:38:29.107Z,988.12
2018-01-30T06:39:29.099Z,988.13
2018-01-30T06:40:29.131Z,988.12
2018-01-30T06:41:29.096Z,988.10
2018-01-30T06:42:29.098Z,988.15
2018-01-30T06:43:29.086Z,988.14
2018-01-30T06:44:29.127Z,988.19
2018-01-30T06:45:29.082Z,988.17
2018-01-30T06:46:29.072Z,988.13
2018-01-30T06:47:29.334Z,988.12
2018-01-30T06:48:29.064Z,988.16
2018-01-30T06:49:29.115Z,988.18
2018-01-30T06:50:29.071Z,988.19
2018-01-30T06:51:29.084Z,988.19
2018-01-30T06:52:29.052Z,988.18
2018-01-30T06:53:29.087Z,988.16
2018-01-30T06:54:29.041Z,988.14
2018-01-30T06:55:29.086Z,988.17
2018-01-30T06:56:29.037Z,988.11
2018-01-30T06:57:29.029Z,988.08
2018-01-30T06:58:29.066Z,988.11
2018-01-30T06:59:29.031Z,988.08
2018-01-30T07:00:29.060Z,988.06
2018-01-30T07:01:29.012Z,988.15
2018-01-30T07:02:29.010Z,988.16
2018-01-30T07:03:29.003Z,988.18
2018-01-30T07:04:29.000Z,988.18
2018-01-30T07:05:29.036Z,988.15
2018-01-30T07:06:28.990Z,988.20
2018-01-30T07:07:28.988Z,988.21
2018-01-30T07:08:28.981Z,988.26
2018-01-30T07:09:28.977Z,988.22
2018-01-30T07:10:29.017Z,988.24
2018-01-30T07:11:28.969Z,988.24
2018-01-30T07:12:28.992Z,988.30
2018-01-30T07:13:29.010Z,988.34
2018-01-30T07:14:28.959Z,988.39
2018-01-30T07:15:28.950Z,988.34
2018-01-30T07:16:28.949Z,988.36
2018-01-30T07:17:28.945Z,988.44
2018-01-30T07:18:29.007Z,988.44
2018-01-30T07:19:28.938Z,988.48
2018-01-30T07:20:28.927Z,988.55
2018-01-30T07:21:28.969Z,988.55
2018-01-30T07:22:29.809Z,988.60
2018-01-30T07:23:28.965Z,988.59
2018-01-30T07:24:28.912Z,988.61
2018-01-30T07:25:28.908Z,988.58
2018-01-30T07:26:28.902Z,988.57
2018-01-30T07:27:28.902Z,988.60
2018-01-30T07:28:28.939Z,988.61
2018-01-30T07:29:28.891Z,988.59
2018-01-30T07:30:28.890Z,988.57
2018-01-30T07:31:28.895Z,988.60
2018-01-30T07:32:28.935Z,988.61
2018-01-30T07:33:28.875Z,988.66
2018-01-30T07:34:28.868Z,988.66
2018-01-30T07:35:28.864Z,988.68
2018-01-30T07:36:28.859Z,988.73
2018-01-30T07:37:28.891Z,988.74
2018-01-30T07:38:28.900Z,988.77
2018-01-30T07:39:28.849Z,988.79
2018-01-30T07:40:28.842Z,988.80
2018-01-30T07:41:28.839Z,988.79
2018-01-30T07:42:28.872Z,988.83
2018-01-30T07:43:28.871Z,988.89
2018-01-30T07:44:28.824Z,988.91
2018-01-30T07:45:28.823Z,988.94
2018-01-30T07:46:28.818Z,988.95
2018-01-30T07:47:28.818Z,988.95
2018-01-30T07:48:28.847Z,989.00
2018-01-30T07:49:28.807Z,988.99
2018-01-30T07:50:28.807Z,989.02
2018-01-30T07:51:28.800Z,989.06
2018-01-30T07:52:28.798Z,989.09
2018-01-30T07:53:28.831Z,989.13
2018-01-30T07:54:28.790Z,989.20
2018-01-30T07:55:28.784Z,989.19
2018-01-30T07:56:28.776Z,989.24
2018-01-30T07:57:28.772Z,989.08
2018-01-30T07:58:28.815Z,989.11
2018-01-30T07:59:28.769Z,989.17
2018-01-30T08:00:28.763Z,989.16
2018-01-30T08:01:28.758Z,989.13
2018-01-30T08:02:28.759Z,989.13
2018-01-30T08:03:28.800Z,989.12
2018-01-30T08:04:28.752Z,989.11
2018-01-30T08:05:28.746Z,989.17
2018-01-30T08:06:28.748Z,989.19
2018-01-30T08:07:28.747Z,989.46
2018-01-30T08:08:28.779Z,989.45
2018-01-30T08:09:28.734Z,989.42
2018-01-30T08:10:28.729Z,989.22
2018-01-30T08:11:28.730Z,989.17
2018-01-30T08:12:28.731Z,989.21
2018-01-30T08:13:28.773Z,989.23
2018-01-30T08:14:28.734Z,989.21
2018-01-30T08:15:28.722Z,989.21
2018-01-30T08:16:28.713Z,989.25
2018-01-30T08:17:28.715Z,989.28
2018-01-30T08:18:28.756Z,989.48
2018-01-30T08:19:28.714Z,989.55
2018-01-30T08:20:28.708Z,989.52
2018-01-30T08:21:28.712Z,989.53
2018-01-30T08:22:28.701Z,989.37
2018-01-30T08:23:28.741Z,989.30
2018-01-30T08:24:28.696Z,989.24
2018-01-30T08:25:28.702Z,989.33
2018-01-30T08:26:28.694Z,989.30
2018-01-30T08:27:28.702Z,989.28
2018-01-30T08:28:28.739Z,989.29
2018-01-30T08:29:28.731Z,989.28
2018-01-30T08:30:28.692Z,989.35
2018-01-30T08:31:28.688Z,989.41
2018-01-30T08:32:28.686Z,989.42
2018-01-30T08:33:28.681Z,989.47
2018-01-30T08:34:28.722Z,989.46
2018-01-30T08:35:28.681Z,989.49
2018-01-30T08:36:28.679Z,989.50
2018-01-30T08:37:28.669Z,989.48
2018-01-30T08:38:28.670Z,989.46
2018-01-30T08:39:28.710Z,989.46
2018-01-30T08:40:28.667Z,989.51
2018-01-30T08:41:28.665Z,989.51
2018-01-30T08:42:28.676Z,989.55
2018-01-30T08:43:28.663Z,989.58
2018-01-30T08:44:28.694Z,989.59
2018-01-30T08:45:28.650Z,989.59
2018-01-30T08:46:28.654Z,989.55
2018-01-30T08:47:28.651Z,989.53
2018-01-30T08:48:28.645Z,989.57
2018-01-30T08:49:28.693Z,989.54
2018-01-30T08:50:28.643Z,989.54
2018-01-30T08:51:28.641Z,989.56
2018-01-30T08:52:28.630Z,989.59
2018-01-30T08:53:28.674Z,989.58
2018-01-30T08:54:28.636Z,989.53
2018-01-30T08:55:28.688Z,989.43
2018-01-30T08:56:28.624Z,989.46
2018-01-30T08:57:28.624Z,989.47
2018-01-30T08:58:28.661Z,989.46
2018-01-30T08:59:28.615Z,989.46
2018-01-30T09:00:28.652Z,989.44
2018-01-30T09:01:28.604Z,989.41
2018-01-30T09:02:28.602Z,989.41
2018-01-30T09:03:28.631Z,989.48
2018-01-30T09:04:28.599Z,989.44
2018-01-30T09:05:29.367Z,989.49
2018-01-30T09:06:28.589Z,989.80
2018-01-30T09:07:28.589Z,989.77
2018-01-30T09:08:28.588Z,989.36
2018-01-30T09:09:28.585Z,989.35
2018-01-30T09:10:28.627Z,989.38
2018-01-30T09:11:28.583Z,989.39
2018-01-30T09:12:28.578Z,989.43
2018-01-30T09:13:28.578Z,989.51
2018-01-30T09:14:28.609Z,989.40
2018-01-30T09:15:28.574Z,989.38
2018-01-30T09:16:28.605Z,989.42
2018-01-30T09:17:28.568Z,989.39
2018-01-30T09:18:28.569Z,989.41
2018-01-30T09:19:28.568Z,989.37
2018-01-30T09:20:28.565Z,989.38
2018-01-30T09:21:28.603Z,989.33
2018-01-30T09:22:28.564Z,989.33
2018-01-30T09:23:28.567Z,989.35
2018-01-30T09:24:28.558Z,989.47
2018-01-30T09:25:28.558Z,989.41
2018-01-30T09:26:28.597Z,989.52
2018-01-30T09:27:28.551Z,989.89
2018-01-30T09:28:28.550Z,989.91
2018-01-30T09:29:28.924Z,989.79
2018-01-30T09:30:28.549Z,989.48
2018-01-30T09:31:28.592Z,989.47
2018-01-30T09:32:28.547Z,989.94
2018-01-30T09:33:28.548Z,989.69
2018-01-30T09:34:28.549Z,989.52
2018-01-30T09:35:28.550Z,989.58
2018-01-30T09:36:28.588Z,989.76
2018-01-30T09:37:28.553Z,989.58
2018-01-30T09:38:28.553Z,989.61
2018-01-30T09:39:28.552Z,989.64
2018-01-30T09:40:28.555Z,989.65
2018-01-30T09:41:28.592Z,989.54
2018-01-30T09:42:28.557Z,989.60
2018-01-30T09:43:28.557Z,989.98
2018-01-30T09:44:28.559Z,989.84
2018-01-30T09:45:28.601Z,989.68
2018-01-30T09:46:28.555Z,989.64
2018-01-30T09:47:28.556Z,989.63
2018-01-30T09:48:28.558Z,989.69
2018-01-30T09:49:28.561Z,989.61
2018-01-30T09:50:28.597Z,989.64
2018-01-30T09:51:28.597Z,989.67
2018-01-30T09:52:28.557Z,989.67
2018-01-30T09:53:28.556Z,989.62
2018-01-30T09:54:28.556Z,989.60
2018-01-30T09:55:28.556Z,989.60
2018-01-30T09:56:28.595Z,989.60
2018-01-30T09:57:28.557Z,990.05
2018-01-30T09:58:28.553Z,989.56
2018-01-30T09:59:28.551Z,989.65
2018-01-30T10:00:28.591Z,989.58
2018-01-30T10:01:28.550Z,989.97
2018-01-30T10:02:28.549Z,989.50
2018-01-30T10:03:28.551Z,989.97
2018-01-30T10:04:28.548Z,989.99
2018-01-30T10:05:28.594Z,990.02
2018-01-30T10:06:28.549Z,989.78
2018-01-30T10:07:28.550Z,989.53
2018-01-30T10:08:28.579Z,989.53
2018-01-30T10:09:29.468Z,989.54
2018-01-30T10:10:28.747Z,989.47
2018-01-30T10:11:28.556Z,989.72
2018-01-30T10:12:28.557Z,989.53
2018-01-30T10:13:28.561Z,989.53
2018-01-30T10:14:28.556Z,989.53
2018-01-30T10:15:28.604Z,989.59
2018-01-30T10:16:28.560Z,989.57
2018-01-30T10:17:28.560Z,989.58
2018-01-30T10:18:28.561Z,990.13
2018-01-30T10:19:28.560Z,989.99
2018-01-30T10:20:28.618Z,990.04
2018-01-30T10:21:28.562Z,990.15
2018-01-30T10:22:28.563Z,989.65
2018-01-30T10:23:28.566Z,990.00
2018-01-30T10:24:28.566Z,990.02
2018-01-30T10:25:28.613Z,989.62
2018-01-30T10:26:28.572Z,989.64
2018-01-30T10:27:28.575Z,989.69
2018-01-30T10:28:28.578Z,990.00
2018-01-30T10:29:28.582Z,989.93
2018-01-30T10:30:28.708Z,990.08
2018-01-30T10:31:28.650Z,990.04
2018-01-30T10:32:28.717Z,989.82
2018-01-30T10:33:28.689Z,990.05
2018-01-30T10:34:28.733Z,990.05
2018-01-30T10:35:28.645Z,990.08
2018-01-30T10:36:28.614Z,990.02
2018-01-30T10:37:28.620Z,989.96
2018-01-30T10:38:28.632Z,989.59
2018-01-30T10:39:28.635Z,989.72
2018-01-30T10:40:28.692Z,989.45
2018-01-30T10:41:28.650Z,989.45
2018-01-30T10:42:29.568Z,989.63
2018-01-30T10:43:28.685Z,989.43
2018-01-30T10:44:28.674Z,989.46
2018-01-30T10:45:28.714Z,989.32
2018-01-30T10:46:28.685Z,989.61
2018-01-30T10:47:28.692Z,989.35
2018-01-30T10:48:28.695Z,989.81
2018-01-30T10:49:28.701Z,989.80
2018-01-30T10:50:28.750Z,989.74
2018-01-30T10:51:28.710Z,989.73
2018-01-30T10:52:28.714Z,989.76
2018-01-30T10:53:28.720Z,989.28
2018-01-30T10:54:28.724Z,989.68
2018-01-30T10:55:28.756Z,989.42
2018-01-30T10:56:28.833Z,989.23
2018-01-30T10:57:28.806Z,989.22
2018-01-30T10:58:28.750Z,989.73
2018-01-30T10:59:28.755Z,989.73
2018-01-30T11:00:28.844Z,989.71
2018-01-30T11:01:28.820Z,989.67
2018-01-30T11:02:28.827Z,989.67
2018-01-30T11:03:28.782Z,989.68
2018-01-30T11:04:28.789Z,989.65
2018-01-30T11:05:28.841Z,989.61
2018-01-30T11:06:28.851Z,989.57
2018-01-30T11:07:28.819Z,989.58
2018-01-30T11:08:28.823Z,989.45
2018-01-30T11:09:28.830Z,989.49
2018-01-30T11:10:28.879Z,989.45
2018-01-30T11:11:28.851Z,989.46
2018-01-30T11:12:28.901Z,989.45
2018-01-30T11:13:28.869Z,989.40
2018-01-30T11:14:28.882Z,989.44
2018-01-30T11:15:28.887Z,989.38
2018-01-30T11:16:28.896Z,989.39
2018-01-30T11:17:28.956Z,989.36
2018-01-30T11:18:28.916Z,989.37
2018-01-30T11:19:28.929Z,989.38
2018-01-30T11:20:28.976Z,989.38
2018-01-30T11:21:28.945Z,989.40
2018-01-30T11:22:28.958Z,989.34
2018-01-30T11:23:29.011Z,989.36
2018-01-30T11:24:28.975Z,989.30
2018-01-30T11:25:28.991Z,989.24
2018-01-30T11:26:28.997Z,989.27
2018-01-30T11:27:29.493Z,989.37
2018-01-30T11:28:29.063Z,989.38
2018-01-30T11:29:29.025Z,989.34
2018-01-30T11:30:29.070Z,989.36
2018-01-30T11:31:29.054Z,989.34
2018-01-30T11:32:29.059Z,989.33
2018-01-30T11:33:29.064Z,989.35
2018-01-30T11:34:29.119Z,989.30
2018-01-30T11:35:29.085Z,989.29
2018-01-30T11:36:29.098Z,989.27
2018-01-30T11:37:29.106Z,989.22
2018-01-30T11:38:29.115Z,989.26
2018-01-30T11:39:29.172Z,989.20
2018-01-30T11:40:29.228Z,989.23
2018-01-30T11:41:29.152Z,989.24
2018-01-30T11:42:29.163Z,989.27
2018-01-30T11:43:29.176Z,989.26
2018-01-30T11:44:29.227Z,989.20
2018-01-30T11:45:29.199Z,989.20
2018-01-30T11:46:29.213Z,989.18
2018-01-30T11:47:29.224Z,989.27
2018-01-30T11:48:29.240Z,989.17
2018-01-30T11:49:29.299Z,989.19
2018-01-30T11:50:29.260Z,989.06
2018-01-30T11:51:29.272Z,989.23
2018-01-30T11:52:29.286Z,989.20
2018-01-30T11:53:29.294Z,989.18
2018-01-30T11:54:29.452Z,989.17
2018-01-30T11:55:29.359Z,989.11
2018-01-30T11:56:29.325Z,989.10
2018-01-30T11:57:29.337Z,989.04
2018-01-30T11:58:29.348Z,988.99
2018-01-30T11:59:29.361Z,988.94
2018-01-30T12:00:30.026Z,989.00
2018-01-30T12:01:29.384Z,988.91
2018-01-30T12:02:29.396Z,988.91
2018-01-30T12:03:29.404Z,988.92
2018-01-30T12:04:29.415Z,988.88
2018-01-30T12:05:29.474Z,988.89
2018-01-30T12:06:29.436Z,988.88
2018-01-30T12:07:29.449Z,988.84
2018-01-30T12:08:29.463Z,988.81
2018-01-30T12:09:29.474Z,988.75
2018-01-30T12:10:29.533Z,988.73
2018-01-30T12:11:29.493Z,988.69
2018-01-30T12:12:29.502Z,988.59
2018-01-30T12:13:29.514Z,988.44
2018-01-30T12:14:29.526Z,988.68
2018-01-30T12:15:29.576Z,988.66
2018-01-30T12:16:29.593Z,988.63
2018-01-30T12:17:29.559Z,988.59
2018-01-30T12:18:29.569Z,988.63
2018-01-30T12:19:29.581Z,988.64
2018-01-30T12:20:29.630Z,988.64
2018-01-30T12:21:29.612Z,988.60
2018-01-30T12:22:29.616Z,988.60
2018-01-30T12:23:29.626Z,988.61
2018-01-30T12:24:29.637Z,988.55
2018-01-30T12:25:29.708Z,988.51
2018-01-30T12:26:29.659Z,988.54
2018-01-30T12:27:29.670Z,988.54
2018-01-30T12:28:29.679Z,988.52